EXS5PH EGNM-LGKR
Flight info
| Callsign | EXS5PH |
|---|---|
| Flight time | 2h 54m |
| Altitude | 37000 |
| Route | LAMIX L603 LAMSO DCT EVELI DCT ALFEN DCT DOJOH DCT DODEN DCT NEGIX DCT DINKU M867 XERUM DCT BAVAX DCT RADIZ DCT EVAXI DCT DARZA DCT DEPET DCT UNIPA DCT NERRA DCT VAKSU DCT RODON DCT LIMJA N732 PITAS |
| Aircraft | B738/M-SDE2E3FGHIRWXY/LB1 |
Departure
| Time | 2026-05-07 11:49 |
|---|---|
| Airport | Leeds Bradford Airport (EGNM) |
Arrival
| Time | 2026-05-07 14:44 |
|---|---|
| Airport | Corfu Ioannis Kapodistrias International Airport (LGKR) |
| Time | Latitude | Longitude | Altitude | Speed | Heading |
|---|---|---|---|---|---|
| 2026-05-07 11:32 | 53.86754 | -1.65083 | 657 ft | 0 kts | 91° |
| 2026-05-07 11:33 | 53.86754 | -1.65082 | 657 ft | 0 kts | 91° |
| 2026-05-07 11:41 | 53.86754 | -1.65089 | 657 ft | 3 kts | 91° |
| 2026-05-07 11:41 | 53.86754 | -1.65134 | 657 ft | 4 kts | 79° |
| 2026-05-07 11:42 | 53.86747 | -1.65167 | 657 ft | 3 kts | 62° |
| 2026-05-07 11:42 | 53.86741 | -1.65201 | 657 ft | 4 kts | 122° |
| 2026-05-07 11:42 | 53.86758 | -1.65213 | 657 ft | 5 kts | 181° |
| 2026-05-07 11:42 | 53.86774 | -1.65213 | 658 ft | 2 kts | 181° |
| 2026-05-07 11:43 | 53.86773 | -1.65213 | 658 ft | 1 kts | 181° |
| 2026-05-07 11:44 | 53.86750 | -1.65221 | 657 ft | 7 kts | 207° |
| 2026-05-07 11:44 | 53.86736 | -1.65326 | 657 ft | 11 kts | 271° |
| 2026-05-07 11:44 | 53.86737 | -1.65477 | 663 ft | 15 kts | 271° |
| 2026-05-07 11:44 | 53.86740 | -1.65684 | 664 ft | 19 kts | 271° |
| 2026-05-07 11:45 | 53.86743 | -1.65908 | 667 ft | 19 kts | 272° |
| 2026-05-07 11:45 | 53.86747 | -1.66127 | 666 ft | 18 kts | 271° |
| 2026-05-07 11:45 | 53.86772 | -1.66332 | 665 ft | 21 kts | 310° |
| 2026-05-07 11:45 | 53.86886 | -1.66511 | 670 ft | 23 kts | 317° |
| 2026-05-07 11:46 | 53.87007 | -1.66696 | 674 ft | 24 kts | 317° |
| 2026-05-07 11:46 | 53.87126 | -1.66879 | 681 ft | 23 kts | 317° |
| 2026-05-07 11:46 | 53.87249 | -1.66996 | 687 ft | 20 kts | 359° |
| 2026-05-07 11:46 | 53.87377 | -1.67002 | 688 ft | 14 kts | 332° |
| 2026-05-07 11:47 | 53.87387 | -1.67139 | 690 ft | 13 kts | 232° |
| 2026-05-07 11:47 | 53.87345 | -1.67206 | 685 ft | 6 kts | 192° |
| 2026-05-07 11:47 | 53.87317 | -1.67175 | 682 ft | 3 kts | 137° |
| 2026-05-07 11:47 | 53.87315 | -1.67172 | 683 ft | 0 kts | 137° |
| 2026-05-07 11:48 | 53.87298 | -1.67145 | 688 ft | 13 kts | 137° |
| 2026-05-07 11:49 | 53.87022 | -1.66719 | 676 ft | 94 kts | 137° |
| 2026-05-07 11:49 | 53.86360 | -1.65710 | 681 ft | 159 kts | 138° |
| 2026-05-07 11:49 | 53.85504 | -1.64459 | 1462 ft | 166 kts | 141° |
| 2026-05-07 11:49 | 53.84618 | -1.63138 | 2396 ft | 171 kts | 140° |
| 2026-05-07 11:50 | 53.83672 | -1.61686 | 2867 ft | 197 kts | 140° |
| 2026-05-07 11:50 | 53.82635 | -1.59949 | 3096 ft | 221 kts | 137° |
| 2026-05-07 11:50 | 53.81540 | -1.58021 | 3583 ft | 232 kts | 137° |
| 2026-05-07 11:50 | 53.80399 | -1.56019 | 4131 ft | 244 kts | 137° |
| 2026-05-07 11:51 | 53.79167 | -1.53876 | 4672 ft | 260 kts | 137° |
| 2026-05-07 11:51 | 53.77892 | -1.51663 | 5426 ft | 266 kts | 137° |
| 2026-05-07 11:51 | 53.76483 | -1.49638 | 6200 ft | 268 kts | 149° |
| 2026-05-07 11:51 | 53.74893 | -1.47925 | 6831 ft | 272 kts | 150° |
| 2026-05-07 11:52 | 53.73307 | -1.46162 | 7281 ft | 276 kts | 149° |
| 2026-05-07 11:52 | 53.71697 | -1.44339 | 8047 ft | 279 kts | 148° |
| 2026-05-07 11:52 | 53.70091 | -1.42501 | 8922 ft | 279 kts | 148° |
| 2026-05-07 11:52 | 53.68476 | -1.40644 | 9742 ft | 282 kts | 148° |
| 2026-05-07 11:53 | 53.66846 | -1.38769 | 10425 ft | 288 kts | 148° |
| 2026-05-07 11:53 | 53.65124 | -1.36794 | 10630 ft | 311 kts | 148° |
| 2026-05-07 11:53 | 53.63271 | -1.34670 | 10826 ft | 333 kts | 148° |
| 2026-05-07 11:53 | 53.61293 | -1.32402 | 11071 ft | 352 kts | 148° |
| 2026-05-07 11:54 | 53.59249 | -1.30056 | 11641 ft | 359 kts | 148° |
| 2026-05-07 11:54 | 53.57177 | -1.27679 | 12369 ft | 362 kts | 148° |
| 2026-05-07 11:54 | 53.55088 | -1.25285 | 13098 ft | 365 kts | 148° |
| 2026-05-07 11:54 | 53.52980 | -1.22872 | 13776 ft | 369 kts | 147° |
| 2026-05-07 11:55 | 53.50845 | -1.20434 | 14382 ft | 373 kts | 147° |
| 2026-05-07 11:55 | 53.48682 | -1.17970 | 15002 ft | 376 kts | 147° |
| 2026-05-07 11:55 | 53.46530 | -1.15454 | 15603 ft | 380 kts | 143° |
| 2026-05-07 11:55 | 53.44635 | -1.12307 | 16205 ft | 386 kts | 130° |
| 2026-05-07 11:56 | 53.43125 | -1.08562 | 16823 ft | 391 kts | 119° |
| 2026-05-07 11:56 | 53.41920 | -1.04444 | 17395 ft | 396 kts | 117° |
| 2026-05-07 11:56 | 53.40738 | -1.00319 | 17956 ft | 399 kts | 117° |
| 2026-05-07 11:56 | 53.39510 | -0.96126 | 18522 ft | 402 kts | 117° |
| 2026-05-07 11:57 | 53.38258 | -0.91921 | 19064 ft | 404 kts | 118° |
| 2026-05-07 11:57 | 53.36965 | -0.87734 | 19631 ft | 405 kts | 119° |
| 2026-05-07 11:57 | 53.35646 | -0.83558 | 20170 ft | 407 kts | 119° |
| 2026-05-07 11:57 | 53.34316 | -0.79359 | 20690 ft | 409 kts | 119° |
| 2026-05-07 11:58 | 53.32985 | -0.75140 | 21204 ft | 411 kts | 119° |
| 2026-05-07 11:58 | 53.31647 | -0.70896 | 21695 ft | 414 kts | 119° |
| 2026-05-07 11:58 | 53.30365 | -0.66576 | 22178 ft | 417 kts | 113° |
| 2026-05-07 11:58 | 53.29422 | -0.61969 | 22664 ft | 420 kts | 108° |
| 2026-05-07 11:59 | 53.28628 | -0.57266 | 23132 ft | 423 kts | 107° |
| 2026-05-07 11:59 | 53.27820 | -0.52525 | 23581 ft | 425 kts | 108° |
| 2026-05-07 11:59 | 53.26954 | -0.47787 | 23958 ft | 427 kts | 109° |
| 2026-05-07 11:59 | 53.26053 | -0.43039 | 24334 ft | 430 kts | 109° |
| 2026-05-07 12:00 | 53.25144 | -0.38274 | 24723 ft | 431 kts | 109° |
| 2026-05-07 12:00 | 53.24237 | -0.33499 | 25112 ft | 432 kts | 108° |
| 2026-05-07 12:00 | 53.23327 | -0.28704 | 25493 ft | 434 kts | 108° |
| 2026-05-07 12:00 | 53.22407 | -0.23900 | 25844 ft | 436 kts | 109° |
| 2026-05-07 12:01 | 53.21475 | -0.19074 | 26181 ft | 438 kts | 109° |
| 2026-05-07 12:01 | 53.20538 | -0.14227 | 26512 ft | 440 kts | 108° |
| 2026-05-07 12:01 | 53.19595 | -0.09358 | 26844 ft | 442 kts | 108° |
| 2026-05-07 12:01 | 53.18648 | -0.04479 | 27173 ft | 444 kts | 108° |
| 2026-05-07 12:02 | 53.17695 | 0.00427 | 27480 ft | 445 kts | 108° |
| 2026-05-07 12:02 | 53.16739 | 0.05349 | 27779 ft | 447 kts | 108° |
| 2026-05-07 12:02 | 53.15779 | 0.10284 | 28096 ft | 449 kts | 108° |
| 2026-05-07 12:02 | 53.15139 | 0.13570 | 28289 ft | 450 kts | 108° |
| 2026-05-07 12:03 | 53.14172 | 0.18528 | 28581 ft | 452 kts | 108° |
| 2026-05-07 12:03 | 53.13197 | 0.23515 | 28880 ft | 453 kts | 108° |
| 2026-05-07 12:03 | 53.11900 | 0.30126 | 29405 ft | 452 kts | 108° |
| 2026-05-07 12:03 | 53.11241 | 0.33476 | 29730 ft | 450 kts | 108° |
| 2026-05-07 12:04 | 53.10268 | 0.38412 | 30211 ft | 448 kts | 108° |
| 2026-05-07 12:04 | 53.08982 | 0.44914 | 30685 ft | 446 kts | 108° |
| 2026-05-07 12:04 | 53.08326 | 0.48228 | 30903 ft | 445 kts | 108° |
| 2026-05-07 12:04 | 53.07356 | 0.53108 | 31242 ft | 444 kts | 108° |
| 2026-05-07 12:05 | 53.06386 | 0.57978 | 31576 ft | 443 kts | 108° |
| 2026-05-07 12:05 | 53.05419 | 0.62825 | 31938 ft | 442 kts | 108° |
| 2026-05-07 12:05 | 53.04451 | 0.67661 | 32307 ft | 440 kts | 108° |
| 2026-05-07 12:05 | 53.03486 | 0.72468 | 32647 ft | 438 kts | 108° |
| 2026-05-07 12:06 | 53.02522 | 0.77266 | 32973 ft | 437 kts | 108° |
| 2026-05-07 12:06 | 53.01571 | 0.81981 | 33286 ft | 436 kts | 108° |
| 2026-05-07 12:06 | 53.00608 | 0.86751 | 33599 ft | 435 kts | 108° |
| 2026-05-07 12:06 | 52.99637 | 0.91552 | 33960 ft | 433 kts | 108° |
| 2026-05-07 12:07 | 52.98691 | 0.96209 | 34258 ft | 431 kts | 108° |
| 2026-05-07 12:07 | 52.97766 | 1.00948 | 34401 ft | 433 kts | 104° |
| 2026-05-07 12:07 | 52.97102 | 1.05834 | 34510 ft | 435 kts | 101° |
| 2026-05-07 12:07 | 52.96539 | 1.10778 | 34652 ft | 437 kts | 100° |
| 2026-05-07 12:08 | 52.96003 | 1.15731 | 34836 ft | 437 kts | 100° |
| 2026-05-07 12:08 | 52.95464 | 1.20690 | 35018 ft | 437 kts | 100° |
| 2026-05-07 12:08 | 52.94912 | 1.25657 | 35090 ft | 438 kts | 101° |
| 2026-05-07 12:09 | 52.93773 | 1.35565 | 35098 ft | 436 kts | 101° |
| 2026-05-07 12:09 | 52.92612 | 1.45404 | 35105 ft | 434 kts | 101° |
| 2026-05-07 12:10 | 52.91442 | 1.55211 | 35101 ft | 433 kts | 101° |
| 2026-05-07 12:10 | 52.90003 | 1.64889 | 35098 ft | 433 kts | 111° |
| 2026-05-07 12:11 | 52.87379 | 1.73856 | 35107 ft | 433 kts | 116° |
| 2026-05-07 12:11 | 52.84637 | 1.82759 | 35110 ft | 434 kts | 116° |
| 2026-05-07 12:12 | 52.81928 | 1.91633 | 35109 ft | 436 kts | 116° |
| 2026-05-07 12:12 | 52.79209 | 2.00599 | 35110 ft | 437 kts | 116° |
| 2026-05-07 12:13 | 52.76481 | 2.09600 | 35111 ft | 439 kts | 116° |
| 2026-05-07 12:13 | 52.73739 | 2.18614 | 35104 ft | 440 kts | 116° |
| 2026-05-07 12:14 | 52.70984 | 2.27639 | 35117 ft | 441 kts | 116° |
| 2026-05-07 12:14 | 52.68215 | 2.36672 | 35114 ft | 442 kts | 116° |
| 2026-05-07 12:15 | 52.65432 | 2.45716 | 35109 ft | 443 kts | 116° |
| 2026-05-07 12:15 | 52.62642 | 2.54749 | 35105 ft | 443 kts | 116° |
| 2026-05-07 12:16 | 52.59838 | 2.63793 | 35114 ft | 443 kts | 116° |
| 2026-05-07 12:16 | 52.57031 | 2.72814 | 35110 ft | 444 kts | 116° |
| 2026-05-07 12:17 | 52.54210 | 2.81844 | 35107 ft | 444 kts | 117° |
| 2026-05-07 12:17 | 52.51388 | 2.90846 | 35111 ft | 443 kts | 117° |
| 2026-05-07 12:18 | 52.48561 | 2.99831 | 35108 ft | 443 kts | 117° |
| 2026-05-07 12:18 | 52.45724 | 3.08816 | 35107 ft | 444 kts | 117° |
| 2026-05-07 12:19 | 52.42890 | 3.17754 | 35107 ft | 445 kts | 117° |
| 2026-05-07 12:19 | 52.40023 | 3.26767 | 35104 ft | 447 kts | 118° |
| 2026-05-07 12:20 | 52.37141 | 3.35792 | 35107 ft | 448 kts | 118° |
| 2026-05-07 12:20 | 52.34240 | 3.44842 | 35097 ft | 450 kts | 118° |
| 2026-05-07 12:21 | 52.31324 | 3.53909 | 35090 ft | 451 kts | 118° |
| 2026-05-07 12:21 | 52.28393 | 3.62985 | 35100 ft | 452 kts | 118° |
| 2026-05-07 12:22 | 52.25450 | 3.72066 | 35102 ft | 453 kts | 118° |
| 2026-05-07 12:22 | 52.22496 | 3.81146 | 35097 ft | 454 kts | 118° |
| 2026-05-07 12:23 | 52.19527 | 3.90241 | 35087 ft | 455 kts | 119° |
| 2026-05-07 12:23 | 52.16548 | 3.99331 | 35084 ft | 455 kts | 119° |
| 2026-05-07 12:24 | 52.13555 | 4.08431 | 35092 ft | 456 kts | 119° |
| 2026-05-07 12:24 | 52.10550 | 4.17535 | 35081 ft | 457 kts | 119° |
| 2026-05-07 12:25 | 52.07553 | 4.26579 | 35080 ft | 458 kts | 120° |
| 2026-05-07 12:25 | 52.04507 | 4.35741 | 35067 ft | 458 kts | 120° |
| 2026-05-07 12:26 | 52.01489 | 4.44783 | 35076 ft | 458 kts | 120° |
| 2026-05-07 12:26 | 51.98445 | 4.53868 | 35073 ft | 458 kts | 120° |
| 2026-05-07 12:27 | 51.95394 | 4.62943 | 35072 ft | 458 kts | 120° |
| 2026-05-07 12:27 | 51.92340 | 4.71995 | 35061 ft | 458 kts | 120° |
| 2026-05-07 12:28 | 51.89282 | 4.81024 | 35068 ft | 457 kts | 120° |
| 2026-05-07 12:28 | 51.86217 | 4.90041 | 35063 ft | 457 kts | 120° |
| 2026-05-07 12:29 | 51.83319 | 4.98536 | 35061 ft | 457 kts | 120° |
| 2026-05-07 12:29 | 51.80405 | 5.07051 | 35072 ft | 457 kts | 120° |
| 2026-05-07 12:30 | 51.77410 | 5.15773 | 35067 ft | 457 kts | 120° |
| 2026-05-07 12:30 | 51.74319 | 5.24741 | 35062 ft | 457 kts | 120° |
| 2026-05-07 12:31 | 51.71218 | 5.33706 | 35062 ft | 458 kts | 121° |
| 2026-05-07 12:31 | 51.68114 | 5.42648 | 35048 ft | 458 kts | 121° |
| 2026-05-07 12:32 | 51.64991 | 5.51612 | 35051 ft | 459 kts | 121° |
| 2026-05-07 12:32 | 51.61859 | 5.60572 | 35050 ft | 460 kts | 121° |
| 2026-05-07 12:33 | 51.57130 | 5.74037 | 35042 ft | 461 kts | 121° |
| 2026-05-07 12:33 | 51.53971 | 5.82996 | 35039 ft | 461 kts | 121° |
| 2026-05-07 12:34 | 51.50810 | 5.91926 | 35050 ft | 460 kts | 121° |
| 2026-05-07 12:34 | 51.47643 | 6.00841 | 35047 ft | 459 kts | 121° |
| 2026-05-07 12:35 | 51.44478 | 6.09720 | 35093 ft | 461 kts | 121° |
| 2026-05-07 12:35 | 51.42879 | 6.14194 | 35279 ft | 462 kts | 121° |
| 2026-05-07 12:35 | 51.41280 | 6.18658 | 35619 ft | 460 kts | 121° |
| 2026-05-07 12:36 | 51.39693 | 6.23084 | 35916 ft | 458 kts | 121° |
| 2026-05-07 12:36 | 51.38131 | 6.27433 | 36093 ft | 459 kts | 121° |
| 2026-05-07 12:36 | 51.36534 | 6.31868 | 36273 ft | 460 kts | 121° |
| 2026-05-07 12:36 | 51.34911 | 6.36371 | 36446 ft | 460 kts | 121° |
| 2026-05-07 12:37 | 51.33333 | 6.40739 | 36650 ft | 459 kts | 121° |
| 2026-05-07 12:37 | 51.31736 | 6.45154 | 36822 ft | 459 kts | 121° |
| 2026-05-07 12:37 | 51.30135 | 6.49571 | 36961 ft | 459 kts | 121° |
| 2026-05-07 12:37 | 51.28530 | 6.53991 | 37039 ft | 460 kts | 121° |
| 2026-05-07 12:38 | 51.25304 | 6.62853 | 37048 ft | 462 kts | 121° |
| 2026-05-07 12:38 | 51.22057 | 6.71742 | 37048 ft | 460 kts | 121° |
| 2026-05-07 12:39 | 51.18829 | 6.80550 | 37046 ft | 459 kts | 121° |
| 2026-05-07 12:39 | 51.15602 | 6.89324 | 37051 ft | 458 kts | 121° |
| 2026-05-07 12:40 | 51.12376 | 6.98066 | 37040 ft | 458 kts | 121° |
| 2026-05-07 12:40 | 51.09140 | 7.06804 | 37042 ft | 458 kts | 121° |
| 2026-05-07 12:41 | 51.05897 | 7.15530 | 37051 ft | 459 kts | 121° |
| 2026-05-07 12:41 | 51.02629 | 7.24295 | 37043 ft | 462 kts | 121° |
| 2026-05-07 12:42 | 50.99346 | 7.33071 | 37047 ft | 463 kts | 122° |
| 2026-05-07 12:42 | 50.96047 | 7.41861 | 37036 ft | 464 kts | 122° |
| 2026-05-07 12:43 | 50.92741 | 7.50640 | 37034 ft | 463 kts | 122° |
| 2026-05-07 12:43 | 50.89306 | 7.59246 | 37025 ft | 461 kts | 130° |
| 2026-05-07 12:44 | 50.85182 | 7.66968 | 37026 ft | 459 kts | 132° |
| 2026-05-07 12:44 | 50.80961 | 7.74633 | 37029 ft | 459 kts | 132° |
| 2026-05-07 12:45 | 50.76815 | 7.82220 | 37023 ft | 459 kts | 132° |
| 2026-05-07 12:45 | 50.72655 | 7.89869 | 37024 ft | 459 kts | 132° |
| 2026-05-07 12:46 | 50.68594 | 7.97332 | 37021 ft | 459 kts | 132° |
| 2026-05-07 12:46 | 50.64347 | 8.05110 | 37013 ft | 459 kts | 132° |
| 2026-05-07 12:47 | 50.60886 | 8.11431 | 37039 ft | 459 kts | 132° |
| 2026-05-07 12:47 | 50.56707 | 8.19041 | 37036 ft | 459 kts | 132° |
| 2026-05-07 12:48 | 50.52495 | 8.26687 | 37048 ft | 459 kts | 132° |
| 2026-05-07 12:48 | 50.48319 | 8.34248 | 37035 ft | 459 kts | 132° |
| 2026-05-07 12:49 | 50.44122 | 8.41823 | 37036 ft | 460 kts | 132° |
| 2026-05-07 12:49 | 50.39925 | 8.49382 | 37025 ft | 460 kts | 132° |
| 2026-05-07 12:50 | 50.35683 | 8.56897 | 37034 ft | 460 kts | 134° |
| 2026-05-07 12:50 | 50.31304 | 8.64213 | 37023 ft | 460 kts | 135° |
| 2026-05-07 12:51 | 50.26902 | 8.71482 | 37022 ft | 460 kts | 135° |
| 2026-05-07 12:51 | 50.22509 | 8.78765 | 37031 ft | 461 kts | 134° |
| 2026-05-07 12:52 | 50.18123 | 8.86050 | 37040 ft | 461 kts | 134° |
| 2026-05-07 12:52 | 50.13721 | 8.93348 | 37023 ft | 461 kts | 134° |
| 2026-05-07 12:53 | 50.09318 | 9.00627 | 37030 ft | 462 kts | 135° |
| 2026-05-07 12:53 | 50.04910 | 9.07892 | 37020 ft | 462 kts | 135° |
| 2026-05-07 12:54 | 50.00486 | 9.15162 | 37019 ft | 463 kts | 135° |
| 2026-05-07 12:54 | 49.96059 | 9.22417 | 37026 ft | 463 kts | 135° |
| 2026-05-07 12:55 | 49.91628 | 9.29655 | 37026 ft | 463 kts | 135° |
| 2026-05-07 12:55 | 49.87181 | 9.36900 | 37021 ft | 463 kts | 135° |
| 2026-05-07 12:56 | 49.82738 | 9.44119 | 37024 ft | 463 kts | 135° |
| 2026-05-07 12:56 | 49.78318 | 9.51280 | 37016 ft | 463 kts | 135° |
| 2026-05-07 12:57 | 49.73871 | 9.58463 | 37019 ft | 462 kts | 135° |
| 2026-05-07 12:57 | 49.69398 | 9.65668 | 37022 ft | 461 kts | 135° |
| 2026-05-07 12:58 | 49.64981 | 9.72765 | 37027 ft | 461 kts | 136° |
| 2026-05-07 12:58 | 49.60533 | 9.79891 | 37016 ft | 460 kts | 136° |
| 2026-05-07 12:59 | 49.56078 | 9.87004 | 37014 ft | 461 kts | 136° |
| 2026-05-07 12:59 | 49.51624 | 9.94098 | 37012 ft | 461 kts | 136° |
| 2026-05-07 13:00 | 49.47161 | 10.01189 | 37019 ft | 461 kts | 136° |
| 2026-05-07 13:00 | 49.42688 | 10.08274 | 37022 ft | 462 kts | 136° |
| 2026-05-07 13:01 | 49.38204 | 10.15358 | 37024 ft | 463 kts | 136° |
| 2026-05-07 13:01 | 49.33710 | 10.22437 | 37042 ft | 464 kts | 136° |
| 2026-05-07 13:02 | 49.29196 | 10.29534 | 37021 ft | 465 kts | 136° |
| 2026-05-07 13:02 | 49.24670 | 10.36597 | 37034 ft | 464 kts | 139° |
| 2026-05-07 13:03 | 49.19474 | 10.42298 | 37058 ft | 458 kts | 152° |
| 2026-05-07 13:03 | 49.13959 | 10.47184 | 37048 ft | 458 kts | 152° |
| 2026-05-07 13:04 | 49.08463 | 10.52096 | 37056 ft | 458 kts | 152° |
| 2026-05-07 13:04 | 49.02979 | 10.57059 | 37043 ft | 458 kts | 152° |
| 2026-05-07 13:05 | 48.97503 | 10.62021 | 37049 ft | 458 kts | 152° |
| 2026-05-07 13:05 | 48.92022 | 10.66974 | 37043 ft | 459 kts | 152° |
| 2026-05-07 13:06 | 48.86535 | 10.71917 | 37056 ft | 459 kts | 152° |
| 2026-05-07 13:06 | 48.81121 | 10.77103 | 37028 ft | 462 kts | 143° |
| 2026-05-07 13:07 | 48.76605 | 10.84065 | 37031 ft | 465 kts | 134° |
| 2026-05-07 13:07 | 48.72332 | 10.91411 | 37028 ft | 465 kts | 134° |
| 2026-05-07 13:08 | 48.68032 | 10.98712 | 37025 ft | 464 kts | 135° |
| 2026-05-07 13:08 | 48.63699 | 11.05969 | 37026 ft | 464 kts | 135° |
| 2026-05-07 13:09 | 48.59354 | 11.13198 | 37019 ft | 464 kts | 135° |
| 2026-05-07 13:09 | 48.55036 | 11.20364 | 37016 ft | 465 kts | 135° |
| 2026-05-07 13:10 | 48.50682 | 11.27574 | 37000 ft | 465 kts | 135° |
| 2026-05-07 13:10 | 48.46328 | 11.34765 | 37015 ft | 465 kts | 135° |
| 2026-05-07 13:11 | 48.41963 | 11.41955 | 37015 ft | 465 kts | 135° |
| 2026-05-07 13:11 | 48.37598 | 11.49126 | 37017 ft | 465 kts | 135° |
| 2026-05-07 13:12 | 48.33222 | 11.56294 | 37017 ft | 465 kts | 135° |
| 2026-05-07 13:12 | 48.28848 | 11.63444 | 37019 ft | 465 kts | 136° |
| 2026-05-07 13:13 | 48.24400 | 11.70451 | 37018 ft | 462 kts | 140° |
| 2026-05-07 13:13 | 48.19665 | 11.76949 | 37017 ft | 461 kts | 142° |
| 2026-05-07 13:14 | 48.14883 | 11.83346 | 37015 ft | 461 kts | 141° |
| 2026-05-07 13:14 | 48.10128 | 11.89781 | 37006 ft | 461 kts | 141° |
| 2026-05-07 13:15 | 48.05391 | 11.96237 | 37003 ft | 460 kts | 141° |
| 2026-05-07 13:15 | 48.00664 | 12.02677 | 36986 ft | 460 kts | 141° |
| 2026-05-07 13:16 | 47.95966 | 12.09058 | 36998 ft | 460 kts | 141° |
| 2026-05-07 13:16 | 47.91232 | 12.15470 | 37004 ft | 459 kts | 142° |
| 2026-05-07 13:17 | 47.86492 | 12.21871 | 37004 ft | 460 kts | 142° |
| 2026-05-07 13:17 | 47.81753 | 12.28255 | 37005 ft | 460 kts | 142° |
| 2026-05-07 13:18 | 47.77008 | 12.34632 | 36993 ft | 460 kts | 142° |
| 2026-05-07 13:18 | 47.72253 | 12.41005 | 37003 ft | 460 kts | 142° |
| 2026-05-07 13:19 | 47.67493 | 12.47372 | 36993 ft | 461 kts | 142° |
| 2026-05-07 13:19 | 47.62727 | 12.53725 | 37003 ft | 461 kts | 143° |
| 2026-05-07 13:20 | 47.57793 | 12.59748 | 37007 ft | 460 kts | 146° |
| 2026-05-07 13:20 | 47.52755 | 12.65568 | 37009 ft | 459 kts | 146° |
| 2026-05-07 13:21 | 47.47738 | 12.71376 | 37010 ft | 456 kts | 146° |
| 2026-05-07 13:21 | 47.42746 | 12.77195 | 37000 ft | 458 kts | 146° |
| 2026-05-07 13:22 | 47.37770 | 12.83000 | 36996 ft | 459 kts | 146° |
| 2026-05-07 13:22 | 47.32757 | 12.88838 | 37006 ft | 460 kts | 146° |
| 2026-05-07 13:23 | 47.27726 | 12.94681 | 36963 ft | 461 kts | 146° |
| 2026-05-07 13:23 | 47.22699 | 13.00506 | 36985 ft | 459 kts | 147° |
| 2026-05-07 13:24 | 47.17674 | 13.06311 | 36984 ft | 459 kts | 147° |
| 2026-05-07 13:24 | 47.12657 | 13.12094 | 36976 ft | 458 kts | 146° |
| 2026-05-07 13:25 | 47.07638 | 13.17865 | 36979 ft | 458 kts | 147° |
| 2026-05-07 13:25 | 47.02615 | 13.23625 | 36964 ft | 459 kts | 147° |
| 2026-05-07 13:26 | 46.97575 | 13.29390 | 36965 ft | 459 kts | 147° |
| 2026-05-07 13:26 | 46.92535 | 13.35143 | 36967 ft | 460 kts | 147° |
| 2026-05-07 13:27 | 46.87487 | 13.40891 | 36952 ft | 461 kts | 147° |
| 2026-05-07 13:27 | 46.82429 | 13.46638 | 36959 ft | 460 kts | 147° |
| 2026-05-07 13:28 | 46.77403 | 13.52335 | 36931 ft | 460 kts | 147° |
| 2026-05-07 13:28 | 46.72436 | 13.58181 | 36950 ft | 457 kts | 146° |
| 2026-05-07 13:29 | 46.67542 | 13.64066 | 36937 ft | 455 kts | 146° |
| 2026-05-07 13:29 | 46.62668 | 13.69899 | 36944 ft | 453 kts | 146° |
| 2026-05-07 13:30 | 46.57790 | 13.75695 | 36965 ft | 453 kts | 147° |
| 2026-05-07 13:30 | 46.52880 | 13.81501 | 36949 ft | 457 kts | 147° |
| 2026-05-07 13:31 | 46.47933 | 13.87336 | 36946 ft | 460 kts | 147° |
| 2026-05-07 13:31 | 46.42949 | 13.93205 | 36959 ft | 462 kts | 147° |
| 2026-05-07 13:32 | 46.37953 | 13.99076 | 36955 ft | 463 kts | 147° |
| 2026-05-07 13:32 | 46.32947 | 14.04943 | 36946 ft | 463 kts | 147° |
| 2026-05-07 13:33 | 46.27948 | 14.10788 | 36956 ft | 463 kts | 147° |
| 2026-05-07 13:33 | 46.22948 | 14.16622 | 36986 ft | 460 kts | 147° |
| 2026-05-07 13:34 | 46.16317 | 14.24333 | 36969 ft | 460 kts | 147° |
| 2026-05-07 13:35 | 46.10530 | 14.31042 | 36959 ft | 459 kts | 147° |
| 2026-05-07 13:35 | 46.06370 | 14.35854 | 36963 ft | 458 kts | 147° |
| 2026-05-07 13:36 | 46.01408 | 14.41581 | 36956 ft | 457 kts | 147° |
| 2026-05-07 13:36 | 45.96455 | 14.47284 | 36954 ft | 456 kts | 148° |
| 2026-05-07 13:37 | 45.91501 | 14.52975 | 36966 ft | 455 kts | 148° |
| 2026-05-07 13:37 | 45.86545 | 14.58655 | 36973 ft | 456 kts | 148° |
| 2026-05-07 13:38 | 45.81620 | 14.64286 | 36973 ft | 456 kts | 148° |
| 2026-05-07 13:38 | 45.76654 | 14.69950 | 36955 ft | 456 kts | 148° |
| 2026-05-07 13:39 | 45.71688 | 14.75601 | 36968 ft | 456 kts | 148° |
| 2026-05-07 13:39 | 45.66717 | 14.81246 | 36963 ft | 456 kts | 148° |
| 2026-05-07 13:40 | 45.61763 | 14.86859 | 36964 ft | 454 kts | 148° |
| 2026-05-07 13:40 | 45.56825 | 14.92442 | 36977 ft | 453 kts | 148° |
| 2026-05-07 13:41 | 45.51869 | 14.98030 | 36972 ft | 455 kts | 148° |
| 2026-05-07 13:41 | 45.46921 | 15.03685 | 36981 ft | 458 kts | 147° |
| 2026-05-07 13:42 | 45.42037 | 15.09554 | 36992 ft | 461 kts | 146° |
| 2026-05-07 13:42 | 45.37141 | 15.15471 | 36996 ft | 462 kts | 146° |
| 2026-05-07 13:43 | 45.32210 | 15.21381 | 36967 ft | 464 kts | 146° |
| 2026-05-07 13:43 | 45.27266 | 15.27272 | 36984 ft | 464 kts | 146° |
| 2026-05-07 13:44 | 45.22311 | 15.33157 | 36977 ft | 465 kts | 146° |
| 2026-05-07 13:44 | 45.17351 | 15.39034 | 36984 ft | 464 kts | 146° |
| 2026-05-07 13:45 | 45.12429 | 15.44853 | 36980 ft | 464 kts | 146° |
| 2026-05-07 13:45 | 45.07480 | 15.50691 | 36957 ft | 462 kts | 146° |
| 2026-05-07 13:46 | 45.02543 | 15.56502 | 36978 ft | 461 kts | 146° |
| 2026-05-07 13:46 | 44.97620 | 15.62282 | 37000 ft | 460 kts | 147° |
| 2026-05-07 13:47 | 44.92702 | 15.68041 | 36987 ft | 459 kts | 147° |
| 2026-05-07 13:47 | 44.87780 | 15.73794 | 37001 ft | 459 kts | 147° |
| 2026-05-07 13:48 | 44.82860 | 15.79530 | 36979 ft | 459 kts | 147° |
| 2026-05-07 13:48 | 44.77941 | 15.85254 | 36997 ft | 459 kts | 147° |
| 2026-05-07 13:49 | 44.73013 | 15.90977 | 37012 ft | 460 kts | 147° |
| 2026-05-07 13:49 | 44.68060 | 15.96674 | 37012 ft | 459 kts | 149° |
| 2026-05-07 13:50 | 44.62678 | 16.01300 | 37005 ft | 452 kts | 157° |
| 2026-05-07 13:50 | 44.57195 | 16.05540 | 37020 ft | 453 kts | 157° |
| 2026-05-07 13:51 | 44.51685 | 16.09846 | 37029 ft | 455 kts | 157° |
| 2026-05-07 13:51 | 44.46167 | 16.14214 | 37042 ft | 456 kts | 156° |
| 2026-05-07 13:52 | 44.40631 | 16.18610 | 37031 ft | 459 kts | 156° |
| 2026-05-07 13:52 | 44.35056 | 16.23026 | 37026 ft | 462 kts | 156° |
| 2026-05-07 13:53 | 44.29465 | 16.27444 | 37027 ft | 461 kts | 156° |
| 2026-05-07 13:53 | 44.23925 | 16.31814 | 37074 ft | 454 kts | 156° |
| 2026-05-07 13:54 | 44.18422 | 16.36142 | 37040 ft | 454 kts | 156° |
| 2026-05-07 13:54 | 44.12912 | 16.40464 | 37046 ft | 455 kts | 156° |
| 2026-05-07 13:55 | 44.07397 | 16.44783 | 37049 ft | 455 kts | 156° |
| 2026-05-07 13:55 | 44.01936 | 16.49148 | 36716 ft | 456 kts | 149° |
| 2026-05-07 13:55 | 43.99321 | 16.51612 | 37140 ft | 453 kts | 150° |
| 2026-05-07 13:56 | 43.96718 | 16.54130 | 37074 ft | 458 kts | 151° |
| 2026-05-07 13:56 | 43.91463 | 16.59249 | 37082 ft | 465 kts | 150° |
| 2026-05-07 13:57 | 43.86146 | 16.64391 | 37072 ft | 468 kts | 151° |
| 2026-05-07 13:57 | 43.80782 | 16.69537 | 37066 ft | 469 kts | 151° |
| 2026-05-07 13:58 | 43.75412 | 16.74667 | 37064 ft | 469 kts | 151° |
| 2026-05-07 13:58 | 43.70045 | 16.79782 | 37077 ft | 468 kts | 151° |
| 2026-05-07 13:59 | 43.64684 | 16.84880 | 37086 ft | 467 kts | 151° |
| 2026-05-07 13:59 | 43.59329 | 16.89961 | 37081 ft | 467 kts | 151° |
| 2026-05-07 14:00 | 43.53983 | 16.95022 | 37094 ft | 465 kts | 151° |
| 2026-05-07 14:00 | 43.48650 | 17.00061 | 37089 ft | 465 kts | 151° |
| 2026-05-07 14:01 | 43.43321 | 17.05083 | 37083 ft | 464 kts | 151° |
| 2026-05-07 14:01 | 43.38035 | 17.10056 | 37097 ft | 463 kts | 151° |
| 2026-05-07 14:02 | 43.32711 | 17.15053 | 37096 ft | 463 kts | 151° |
| 2026-05-07 14:02 | 43.27391 | 17.20034 | 37083 ft | 463 kts | 151° |
| 2026-05-07 14:03 | 43.22068 | 17.25009 | 37093 ft | 463 kts | 151° |
| 2026-05-07 14:03 | 43.16727 | 17.29990 | 37086 ft | 465 kts | 151° |
| 2026-05-07 14:04 | 43.11361 | 17.34982 | 37094 ft | 467 kts | 151° |
| 2026-05-07 14:04 | 43.05981 | 17.39978 | 37052 ft | 468 kts | 151° |
| 2026-05-07 14:05 | 43.00587 | 17.44978 | 37069 ft | 469 kts | 151° |
| 2026-05-07 14:05 | 42.95190 | 17.49970 | 37091 ft | 469 kts | 151° |
| 2026-05-07 14:06 | 42.89779 | 17.54967 | 37093 ft | 470 kts | 151° |
| 2026-05-07 14:06 | 42.84376 | 17.59987 | 37063 ft | 470 kts | 151° |
| 2026-05-07 14:07 | 42.78882 | 17.64742 | 37055 ft | 463 kts | 162° |
| 2026-05-07 14:07 | 42.72957 | 17.67812 | 37082 ft | 458 kts | 166° |
| 2026-05-07 14:08 | 42.66964 | 17.70761 | 37075 ft | 458 kts | 166° |
| 2026-05-07 14:08 | 42.60982 | 17.73776 | 37057 ft | 459 kts | 165° |
| 2026-05-07 14:09 | 42.54972 | 17.76857 | 37066 ft | 459 kts | 165° |
| 2026-05-07 14:09 | 42.49028 | 17.79916 | 37077 ft | 460 kts | 165° |
| 2026-05-07 14:10 | 42.43022 | 17.83000 | 37075 ft | 462 kts | 165° |
| 2026-05-07 14:10 | 42.37002 | 17.86084 | 37065 ft | 463 kts | 165° |
| 2026-05-07 14:11 | 42.30963 | 17.89170 | 37073 ft | 465 kts | 165° |
| 2026-05-07 14:11 | 42.24907 | 17.92259 | 37062 ft | 466 kts | 165° |
| 2026-05-07 14:12 | 42.18830 | 17.95352 | 37044 ft | 467 kts | 165° |
| 2026-05-07 14:12 | 42.12751 | 17.98439 | 37057 ft | 467 kts | 166° |
| 2026-05-07 14:13 | 42.06671 | 18.01521 | 37056 ft | 467 kts | 166° |
| 2026-05-07 14:13 | 42.00588 | 18.04598 | 37059 ft | 467 kts | 166° |
| 2026-05-07 14:14 | 41.94510 | 18.07666 | 37061 ft | 466 kts | 166° |
| 2026-05-07 14:14 | 41.88438 | 18.10725 | 37062 ft | 466 kts | 166° |
| 2026-05-07 14:15 | 41.82405 | 18.13757 | 37064 ft | 466 kts | 166° |
| 2026-05-07 14:15 | 41.76343 | 18.16798 | 37038 ft | 465 kts | 166° |
| 2026-05-07 14:16 | 41.70279 | 18.19835 | 37059 ft | 465 kts | 167° |
| 2026-05-07 14:16 | 41.64220 | 18.22861 | 37068 ft | 465 kts | 167° |
| 2026-05-07 14:17 | 41.58149 | 18.25888 | 37064 ft | 466 kts | 167° |
| 2026-05-07 14:17 | 41.52069 | 18.28913 | 37045 ft | 466 kts | 167° |
| 2026-05-07 14:18 | 41.45991 | 18.31932 | 37062 ft | 467 kts | 168° |
| 2026-05-07 14:18 | 41.39894 | 18.34953 | 37064 ft | 468 kts | 168° |
| 2026-05-07 14:18 | 41.36841 | 18.36463 | 36960 ft | 471 kts | 168° |
| 2026-05-07 14:19 | 41.33745 | 18.37989 | 36427 ft | 476 kts | 168° |
| 2026-05-07 14:19 | 41.30646 | 18.39520 | 35882 ft | 474 kts | 168° |
| 2026-05-07 14:19 | 41.27561 | 18.41045 | 35269 ft | 474 kts | 168° |
| 2026-05-07 14:19 | 41.24471 | 18.42570 | 34660 ft | 474 kts | 168° |
| 2026-05-07 14:20 | 41.21380 | 18.44093 | 34000 ft | 475 kts | 168° |
| 2026-05-07 14:20 | 41.18271 | 18.45621 | 33252 ft | 476 kts | 167° |
| 2026-05-07 14:20 | 41.15164 | 18.47147 | 32559 ft | 476 kts | 167° |
| 2026-05-07 14:20 | 41.12094 | 18.48654 | 31868 ft | 477 kts | 167° |
| 2026-05-07 14:21 | 41.08984 | 18.50180 | 31151 ft | 477 kts | 166° |
| 2026-05-07 14:21 | 41.05877 | 18.51703 | 30599 ft | 474 kts | 166° |
| 2026-05-07 14:21 | 41.02793 | 18.53216 | 30106 ft | 470 kts | 166° |
| 2026-05-07 14:21 | 40.99743 | 18.54710 | 29525 ft | 466 kts | 166° |
| 2026-05-07 14:22 | 40.96716 | 18.56191 | 28996 ft | 461 kts | 166° |
| 2026-05-07 14:22 | 40.93729 | 18.57651 | 28476 ft | 456 kts | 165° |
| 2026-05-07 14:22 | 40.90763 | 18.59097 | 27967 ft | 451 kts | 165° |
| 2026-05-07 14:22 | 40.87838 | 18.60522 | 27451 ft | 446 kts | 165° |
| 2026-05-07 14:23 | 40.84936 | 18.61934 | 26960 ft | 442 kts | 165° |
| 2026-05-07 14:23 | 40.82070 | 18.63326 | 26454 ft | 438 kts | 165° |
| 2026-05-07 14:23 | 40.79221 | 18.64709 | 25981 ft | 434 kts | 165° |
| 2026-05-07 14:23 | 40.76393 | 18.66081 | 25485 ft | 431 kts | 165° |
| 2026-05-07 14:24 | 40.73595 | 18.67436 | 25006 ft | 428 kts | 165° |
| 2026-05-07 14:24 | 40.70809 | 18.68785 | 24525 ft | 425 kts | 164° |
| 2026-05-07 14:24 | 40.68043 | 18.70123 | 24029 ft | 422 kts | 164° |
| 2026-05-07 14:24 | 40.65297 | 18.71449 | 23502 ft | 420 kts | 164° |
| 2026-05-07 14:25 | 40.62559 | 18.72772 | 22952 ft | 417 kts | 164° |
| 2026-05-07 14:25 | 40.59853 | 18.74079 | 22452 ft | 413 kts | 164° |
| 2026-05-07 14:25 | 40.57262 | 18.75674 | 21865 ft | 410 kts | 152° |
| 2026-05-07 14:25 | 40.54965 | 18.77877 | 21217 ft | 411 kts | 143° |
| 2026-05-07 14:26 | 40.52922 | 18.80534 | 20639 ft | 414 kts | 135° |
| 2026-05-07 14:26 | 40.51034 | 18.83373 | 20188 ft | 411 kts | 135° |
| 2026-05-07 14:26 | 40.49164 | 18.86180 | 19777 ft | 406 kts | 135° |
| 2026-05-07 14:26 | 40.47930 | 18.88026 | 19490 ft | 404 kts | 135° |
| 2026-05-07 14:27 | 40.46082 | 18.90778 | 19051 ft | 401 kts | 135° |
| 2026-05-07 14:27 | 40.43646 | 18.94386 | 18477 ft | 396 kts | 135° |
| 2026-05-07 14:27 | 40.41825 | 18.97074 | 18013 ft | 393 kts | 136° |
| 2026-05-07 14:27 | 40.40013 | 18.99744 | 17536 ft | 390 kts | 136° |
| 2026-05-07 14:28 | 40.38220 | 19.02382 | 17073 ft | 386 kts | 136° |
| 2026-05-07 14:28 | 40.36440 | 19.04998 | 16637 ft | 382 kts | 136° |
| 2026-05-07 14:28 | 40.35246 | 19.06750 | 16325 ft | 380 kts | 136° |
| 2026-05-07 14:28 | 40.33511 | 19.09296 | 15864 ft | 378 kts | 136° |
| 2026-05-07 14:29 | 40.31742 | 19.11888 | 15399 ft | 376 kts | 136° |
| 2026-05-07 14:29 | 40.30005 | 19.14433 | 14929 ft | 374 kts | 136° |
| 2026-05-07 14:29 | 40.28267 | 19.16976 | 14468 ft | 373 kts | 135° |
| 2026-05-07 14:29 | 40.26545 | 19.19495 | 14057 ft | 370 kts | 135° |
| 2026-05-07 14:30 | 40.24858 | 19.21960 | 13632 ft | 367 kts | 135° |
| 2026-05-07 14:30 | 40.23161 | 19.24439 | 13191 ft | 364 kts | 135° |
| 2026-05-07 14:30 | 40.21480 | 19.26892 | 12778 ft | 361 kts | 135° |
| 2026-05-07 14:30 | 40.19819 | 19.29315 | 12522 ft | 353 kts | 135° |
| 2026-05-07 14:31 | 40.18216 | 19.31656 | 12325 ft | 338 kts | 135° |
| 2026-05-07 14:31 | 40.16672 | 19.33908 | 12029 ft | 325 kts | 136° |
| 2026-05-07 14:31 | 40.15195 | 19.36059 | 11762 ft | 313 kts | 136° |
| 2026-05-07 14:31 | 40.13765 | 19.38139 | 11498 ft | 302 kts | 136° |
| 2026-05-07 14:32 | 40.12379 | 19.40152 | 11278 ft | 295 kts | 136° |
| 2026-05-07 14:32 | 40.11027 | 19.42113 | 11159 ft | 287 kts | 136° |
| 2026-05-07 14:32 | 40.09699 | 19.44038 | 10924 ft | 284 kts | 136° |
| 2026-05-07 14:32 | 40.08375 | 19.45954 | 10626 ft | 284 kts | 136° |
| 2026-05-07 14:33 | 40.07050 | 19.47869 | 10334 ft | 284 kts | 136° |
| 2026-05-07 14:33 | 40.05731 | 19.49778 | 10071 ft | 282 kts | 136° |
| 2026-05-07 14:33 | 40.04418 | 19.51676 | 9791 ft | 281 kts | 136° |
| 2026-05-07 14:33 | 40.03109 | 19.53570 | 9519 ft | 279 kts | 136° |
| 2026-05-07 14:34 | 40.01812 | 19.55444 | 9156 ft | 279 kts | 135° |
| 2026-05-07 14:34 | 40.00513 | 19.57320 | 8699 ft | 277 kts | 135° |
| 2026-05-07 14:34 | 39.99227 | 19.59177 | 8251 ft | 275 kts | 135° |
| 2026-05-07 14:34 | 39.97950 | 19.61020 | 7813 ft | 273 kts | 135° |
| 2026-05-07 14:35 | 39.96699 | 19.62823 | 7379 ft | 271 kts | 135° |
| 2026-05-07 14:35 | 39.95444 | 19.64633 | 6947 ft | 268 kts | 135° |
| 2026-05-07 14:35 | 39.94182 | 19.66451 | 6519 ft | 266 kts | 135° |
| 2026-05-07 14:35 | 39.92964 | 19.68205 | 6061 ft | 263 kts | 134° |
| 2026-05-07 14:36 | 39.91744 | 19.69960 | 5623 ft | 260 kts | 134° |
| 2026-05-07 14:36 | 39.90542 | 19.71689 | 5346 ft | 251 kts | 134° |
| 2026-05-07 14:36 | 39.89397 | 19.73337 | 5173 ft | 239 kts | 134° |
| 2026-05-07 14:36 | 39.88310 | 19.74898 | 5059 ft | 227 kts | 134° |
| 2026-05-07 14:37 | 39.87267 | 19.76395 | 4965 ft | 220 kts | 134° |
| 2026-05-07 14:37 | 39.85494 | 19.79481 | 4712 ft | 212 kts | 119° |
| 2026-05-07 14:37 | 39.84796 | 19.81190 | 4536 ft | 215 kts | 120° |
| 2026-05-07 14:38 | 39.84069 | 19.82925 | 4292 ft | 222 kts | 120° |
| 2026-05-07 14:38 | 39.83319 | 19.84696 | 4027 ft | 225 kts | 120° |
| 2026-05-07 14:38 | 39.82564 | 19.86470 | 3766 ft | 222 kts | 120° |
| 2026-05-07 14:38 | 39.81831 | 19.88190 | 3555 ft | 211 kts | 120° |
| 2026-05-07 14:39 | 39.81118 | 19.89806 | 3314 ft | 201 kts | 127° |
| 2026-05-07 14:39 | 39.80054 | 19.90815 | 3224 ft | 188 kts | 158° |
| 2026-05-07 14:39 | 39.78780 | 19.91254 | 3194 ft | 192 kts | 173° |
| 2026-05-07 14:39 | 39.77445 | 19.91389 | 3209 ft | 193 kts | 172° |
| 2026-05-07 14:40 | 39.76158 | 19.91540 | 3181 ft | 178 kts | 172° |
| 2026-05-07 14:40 | 39.74980 | 19.91668 | 3175 ft | 166 kts | 175° |
| 2026-05-07 14:40 | 39.73828 | 19.91489 | 2902 ft | 167 kts | 193° |
| 2026-05-07 14:40 | 39.72779 | 19.91007 | 2800 ft | 150 kts | 196° |
| 2026-05-07 14:41 | 39.71895 | 19.90590 | 2785 ft | 132 kts | 195° |
| 2026-05-07 14:41 | 39.70953 | 19.90171 | 2574 ft | 149 kts | 195° |
| 2026-05-07 14:41 | 39.69969 | 19.89812 | 2309 ft | 149 kts | 189° |
| 2026-05-07 14:41 | 39.68961 | 19.89592 | 1951 ft | 145 kts | 181° |
| 2026-05-07 14:42 | 39.67979 | 19.89560 | 1670 ft | 138 kts | 178° |
| 2026-05-07 14:42 | 39.67018 | 19.89597 | 1455 ft | 140 kts | 176° |
| 2026-05-07 14:42 | 39.66035 | 19.89712 | 1282 ft | 143 kts | 169° |
| 2026-05-07 14:42 | 39.65062 | 19.89935 | 1010 ft | 141 kts | 169° |
| 2026-05-07 14:43 | 39.64111 | 19.90184 | 739 ft | 136 kts | 167° |
| 2026-05-07 14:43 | 39.63165 | 19.90433 | 547 ft | 138 kts | 168° |
| 2026-05-07 14:43 | 39.62231 | 19.90680 | 358 ft | 136 kts | 166° |
| 2026-05-07 14:43 | 39.61303 | 19.90927 | 123 ft | 136 kts | 166° |
| 2026-05-07 14:44 | 39.60396 | 19.91164 | 9 ft | 123 kts | 168° |
| 2026-05-07 14:44 | 39.59887 | 19.91294 | 11 ft | 34 kts | 171° |
| 2026-05-07 14:44 | 39.59784 | 19.91319 | 11 ft | 7 kts | 81° |
| 2026-05-07 14:44 | 39.59849 | 19.91312 | 11 ft | 15 kts | 342° |
| 2026-05-07 14:45 | 39.59992 | 19.91266 | 10 ft | 27 kts | 349° |
| 2026-05-07 14:45 | 39.60208 | 19.91211 | 10 ft | 34 kts | 349° |
| 2026-05-07 14:45 | 39.60431 | 19.91157 | 8 ft | 26 kts | 354° |
| 2026-05-07 14:45 | 39.60584 | 19.91203 | 9 ft | 10 kts | 29° |
| 2026-05-07 14:46 | 39.60637 | 19.91259 | 7 ft | 10 kts | 44° |
| 2026-05-07 14:46 | 39.60698 | 19.91272 | 7 ft | 10 kts | 348° |
| 2026-05-07 14:46 | 39.60746 | 19.91265 | 7 ft | 4 kts | 25° |
| 2026-05-07 14:46 | 39.60754 | 19.91304 | 7 ft | 5 kts | 78° |
| 2026-05-07 14:47 | 39.60759 | 19.91335 | 8 ft | 0 kts | 78° |